sensor_id;sensor_type;location;lat;lon;timestamp;pressure;altitude;pressure_sealevel;temperature;humidity
62694;BME280;48759;52.544;13.418;2023-05-11T00:01:39;100761.09;;;9.39;nan
62694;BME280;48759;52.544;13.418;2023-05-11T00:04:07;100764.03;;;9.38;nan
62694;BME280;48759;52.544;13.418;2023-05-11T00:06:33;100764.22;;;9.36;nan
62694;BME280;48759;52.544;13.418;2023-05-11T00:09:03;100753.94;;;9.38;nan
62694;BME280;48759;52.544;13.418;2023-05-11T00:11:30;100760.25;;;9.39;nan
62694;BME280;48759;52.544;13.418;2023-05-11T00:13:58;100761.09;;;9.39;nan
62694;BME280;48759;52.544;13.418;2023-05-11T00:16:26;100755.41;;;9.41;nan
62694;BME280;48759;52.544;13.418;2023-05-11T00:18:53;100761.09;;;9.39;nan
62694;BME280;48759;52.544;13.418;2023-05-11T00:21:20;100758.91;;;9.35;nan
62694;BME280;48759;52.544;13.418;2023-05-11T00:23:47;100753.81;;;9.32;nan
62694;BME280;48759;52.544;13.418;2023-05-11T00:26:13;100753.75;;;9.25;nan
62694;BME280;48759;52.544;13.418;2023-05-11T00:28:40;100752.28;;;9.23;nan
62694;BME280;48759;52.544;13.418;2023-05-11T00:31:07;100751.47;;;9.29;nan
62694;BME280;48759;52.544;13.418;2023-05-11T00:33:35;100757.50;;;9.17;nan
62694;BME280;48759;52.544;13.418;2023-05-11T00:36:02;100743.50;;;9.12;nan
62694;BME280;48759;52.544;13.418;2023-05-11T00:38:29;100748.34;;;9.10;nan
62694;BME280;48759;52.544;13.418;2023-05-11T00:40:56;100754.81;;;9.03;nan
62694;BME280;48759;52.544;13.418;2023-05-11T00:43:23;100752.91;;;9.03;nan
62694;BME280;48759;52.544;13.418;2023-05-11T00:45:50;100753.53;;;8.99;nan
62694;BME280;48759;52.544;13.418;2023-05-11T00:48:17;100757.50;;;8.96;nan
62694;BME280;48759;52.544;13.418;2023-05-11T00:50:47;100760.44;;;8.95;nan
62694;BME280;48759;52.544;13.418;2023-05-11T00:53:16;100754.88;;;8.88;nan
62694;BME280;48759;52.544;13.418;2023-05-11T00:55:43;100756.28;;;8.84;nan
62694;BME280;48759;52.544;13.418;2023-05-11T00:58:12;100752.13;;;8.88;nan
62694;BME280;48759;52.544;13.418;2023-05-11T01:00:40;100753.34;;;8.86;nan
62694;BME280;48759;52.544;13.418;2023-05-11T01:03:07;100753.28;;;8.79;nan
62694;BME280;48759;52.544;13.418;2023-05-11T01:05:39;100757.47;;;8.75;nan
62694;BME280;48759;52.544;13.418;2023-05-11T01:08:14;100750.28;;;8.74;nan
62694;BME280;48759;52.544;13.418;2023-05-11T01:10:47;100751.72;;;8.70;nan
62694;BME280;48759;52.544;13.418;2023-05-11T01:13:22;100753.94;;;8.60;nan
62694;BME280;48759;52.544;13.418;2023-05-11T01:15:53;100755.16;;;8.57;nan
62694;BME280;48759;52.544;13.418;2023-05-11T01:18:25;100763.56;;;8.56;nan
62694;BME280;48759;52.544;13.418;2023-05-11T01:20:56;100765.66;;;8.54;nan
62694;BME280;48759;52.544;13.418;2023-05-11T01:23:48;100767.09;;;8.50;nan
62694;BME280;48759;52.544;13.418;2023-05-11T01:26:36;100768.50;;;8.45;nan
62694;BME280;48759;52.544;13.418;2023-05-11T01:29:24;100768.25;;;8.40;nan
62694;BME280;48759;52.544;13.418;2023-05-11T01:31:56;100775.44;;;8.41;nan
62694;BME280;48759;52.544;13.418;2023-05-11T01:34:27;100776.09;;;8.43;nan
62694;BME280;48759;52.544;13.418;2023-05-11T01:36:59;100781.00;;;8.33;nan
62694;BME280;48759;52.544;13.418;2023-05-11T01:39:33;100776.00;;;8.22;nan
62694;BME280;48759;52.544;13.418;2023-05-11T01:42:03;100774.75;;;8.10;nan
62694;BME280;48759;52.544;13.418;2023-05-11T01:44:32;100784.00;;;8.09;nan
62694;BME280;48759;52.544;13.418;2023-05-11T01:47:02;100793.19;;;8.01;nan
62694;BME280;48759;52.544;13.418;2023-05-11T01:49:35;100780.50;;;8.00;nan
62694;BME280;48759;52.544;13.418;2023-05-11T01:52:04;100790.53;;;7.93;nan
62694;BME280;48759;52.544;13.418;2023-05-11T01:54:33;100791.38;;;7.94;nan
62694;BME280;48759;52.544;13.418;2023-05-11T01:57:02;100787.03;;;7.85;nan
62694;BME280;48759;52.544;13.418;2023-05-11T01:59:32;100789.75;;;7.85;nan
62694;BME280;48759;52.544;13.418;2023-05-11T02:02:02;100796.59;;;7.89;nan
62694;BME280;48759;52.544;13.418;2023-05-11T02:04:30;100784.56;;;7.90;nan
62694;BME280;48759;52.544;13.418;2023-05-11T02:06:58;100794.88;;;7.88;nan
62694;BME280;48759;52.544;13.418;2023-05-11T02:09:28;100796.66;;;7.81;nan
62694;BME280;48759;52.544;13.418;2023-05-11T02:11:55;100796.06;;;7.71;nan
62694;BME280;48759;52.544;13.418;2023-05-11T02:14:24;100797.28;;;7.68;nan
62694;BME280;48759;52.544;13.418;2023-05-11T02:16:58;100796.63;;;7.66;nan
62694;BME280;48759;52.544;13.418;2023-05-11T02:19:28;100803.38;;;7.78;nan
62694;BME280;48759;52.544;13.418;2023-05-11T02:21:56;100808.44;;;7.66;nan
62694;BME280;48759;52.544;13.418;2023-05-11T02:24:23;100810.88;;;7.61;nan
62694;BME280;48759;52.544;13.418;2023-05-11T02:26:54;100803.03;;;7.58;nan
62694;BME280;48759;52.544;13.418;2023-05-11T02:29:21;100806.69;;;7.51;nan
62694;BME280;48759;52.544;13.418;2023-05-11T02:31:55;100810.34;;;7.43;nan
62694;BME280;48759;52.544;13.418;2023-05-11T02:34:26;100816.22;;;7.40;nan
62694;BME280;48759;52.544;13.418;2023-05-11T02:36:57;100807.81;;;7.42;nan
62694;BME280;48759;52.544;13.418;2023-05-11T02:39:29;100815.72;;;7.37;nan
62694;BME280;48759;52.544;13.418;2023-05-11T02:41:59;100808.41;;;7.29;nan
62694;BME280;48759;52.544;13.418;2023-05-11T02:44:33;100808.81;;;7.26;nan
62694;BME280;48759;52.544;13.418;2023-05-11T02:47:03;100810.81;;;7.32;nan
62694;BME280;48759;52.544;13.418;2023-05-11T02:49:34;100804.72;;;7.22;nan
62694;BME280;48759;52.544;13.418;2023-05-11T02:52:04;100802.72;;;7.16;nan
62694;BME280;48759;52.544;13.418;2023-05-11T02:54:32;100810.59;;;7.11;nan
62694;BME280;48759;52.544;13.418;2023-05-11T02:56:59;100806.84;;;7.12;nan
62694;BME280;48759;52.544;13.418;2023-05-11T02:59:29;100813.66;;;7.16;nan
62694;BME280;48759;52.544;13.418;2023-05-11T03:01:56;100815.38;;;7.17;nan
62694;BME280;48759;52.544;13.418;2023-05-11T03:04:24;100818.75;;;7.19;nan
62694;BME280;48759;52.544;13.418;2023-05-11T03:06:53;100814.97;;;7.20;nan
62694;BME280;48759;52.544;13.418;2023-05-11T03:09:20;100817.91;;;7.18;nan
62694;BME280;48759;52.544;13.418;2023-05-11T03:11:46;100819.75;;;7.26;nan
62694;BME280;48759;52.544;13.418;2023-05-11T03:14:13;100820.84;;;7.17;nan
62694;BME280;48759;52.544;13.418;2023-05-11T03:16:41;100818.97;;;7.17;nan
62694;BME280;48759;52.544;13.418;2023-05-11T03:19:08;100813.66;;;7.16;nan
62694;BME280;48759;52.544;13.418;2023-05-11T03:21:36;100811.59;;;7.18;nan
62694;BME280;48759;52.544;13.418;2023-05-11T03:24:08;100812.31;;;7.12;nan
62694;BME280;48759;52.544;13.418;2023-05-11T03:26:36;100811.66;;;7.10;nan
62694;BME280;48759;52.544;13.418;2023-05-11T03:29:03;100812.31;;;7.12;nan
62694;BME280;48759;52.544;13.418;2023-05-11T03:31:33;100817.44;;;7.15;nan
62694;BME280;48759;52.544;13.418;2023-05-11T03:34:00;100813.28;;;7.19;nan
62694;BME280;48759;52.544;13.418;2023-05-11T03:36:28;100812.56;;;7.25;nan
62694;BME280;48759;52.544;13.418;2023-05-11T03:38:57;100820.97;;;7.23;nan
62694;BME280;48759;52.544;13.418;2023-05-11T03:41:26;100815.94;;;7.27;nan
62694;BME280;48759;52.544;13.418;2023-05-11T03:43:59;100818.63;;;7.35;nan
62694;BME280;48759;52.544;13.418;2023-05-11T03:46:30;100828.25;;;7.31;nan
62694;BME280;48759;52.544;13.418;2023-05-11T03:49:00;100818.28;;;7.38;nan
62694;BME280;48759;52.544;13.418;2023-05-11T03:51:28;100824.25;;;7.42;nan
62694;BME280;48759;52.544;13.418;2023-05-11T03:53:56;100816.84;;;7.42;nan
62694;BME280;48759;52.544;13.418;2023-05-11T03:56:23;100822.25;;;7.50;nan
62694;BME280;48759;52.544;13.418;2023-05-11T03:58:54;100818.38;;;7.45;nan
62694;BME280;48759;52.544;13.418;2023-05-11T04:01:21;100813.41;;;7.48;nan
62694;BME280;48759;52.544;13.418;2023-05-11T04:03:49;100817.09;;;7.55;nan
62694;BME280;48759;52.544;13.418;2023-05-11T04:06:16;100816.06;;;7.56;nan
62694;BME280;48759;52.544;13.418;2023-05-11T04:08:43;100813.97;;;7.58;nan
62694;BME280;48759;52.544;13.418;2023-05-11T04:11:10;100820.31;;;7.59;nan
62694;BME280;48759;52.544;13.418;2023-05-11T04:13:37;100819.09;;;7.61;nan
62694;BME280;48759;52.544;13.418;2023-05-11T04:16:06;100823.38;;;7.64;nan
62694;BME280;48759;52.544;13.418;2023-05-11T04:18:33;100819.69;;;7.72;nan
62694;BME280;48759;52.544;13.418;2023-05-11T04:21:05;100821.59;;;7.86;nan
62694;BME280;48759;52.544;13.418;2023-05-11T04:23:39;100820.75;;;7.85;nan
62694;BME280;48759;52.544;13.418;2023-05-11T04:26:06;100839.00;;;7.93;nan
62694;BME280;48759;52.544;13.418;2023-05-11T04:28:35;100823.50;;;8.00;nan
62694;BME280;48759;52.544;13.418;2023-05-11T04:31:10;100829.94;;;8.07;nan
62694;BME280;48759;52.544;13.418;2023-05-11T04:34:05;100829.22;;;8.13;nan
62694;BME280;48759;52.544;13.418;2023-05-11T04:36:49;100824.03;;;8.18;nan
62694;BME280;48759;52.544;13.418;2023-05-11T04:39:25;100828.41;;;8.27;nan
62694;BME280;48759;52.544;13.418;2023-05-11T04:41:58;100834.81;;;8.34;nan
62694;BME280;48759;52.544;13.418;2023-05-11T04:44:38;100824.97;;;8.40;nan
62694;BME280;48759;52.544;13.418;2023-05-11T04:47:22;100835.75;;;8.56;nan
62694;BME280;48759;52.544;13.418;2023-05-11T04:50:00;100829.22;;;8.57;nan
62694;BME280;48759;52.544;13.418;2023-05-11T04:52:42;100843.97;;;8.71;nan
62694;BME280;48759;52.544;13.418;2023-05-11T04:55:12;100850.78;;;8.75;nan
62694;BME280;48759;52.544;13.418;2023-05-11T04:57:39;100842.81;;;8.80;nan
62694;BME280;48759;52.544;13.418;2023-05-11T05:00:08;100845.81;;;8.85;nan
62694;BME280;48759;52.544;13.418;2023-05-11T05:02:42;100848.63;;;9.06;nan
62694;BME280;48759;52.544;13.418;2023-05-11T05:05:13;100846.50;;;9.08;nan
62694;BME280;48759;52.544;13.418;2023-05-11T05:07:48;100855.97;;;9.20;nan
62694;BME280;48759;52.544;13.418;2023-05-11T05:10:15;100855.19;;;9.27;nan
62694;BME280;48759;52.544;13.418;2023-05-11T05:12:42;100857.53;;;9.30;nan
62694;BME280;48759;52.544;13.418;2023-05-11T05:15:10;100848.13;;;9.39;nan
62694;BME280;48759;52.544;13.418;2023-05-11T05:17:38;100848.59;;;9.42;nan
62694;BME280;48759;52.544;13.418;2023-05-11T05:20:06;100849.72;;;9.48;nan
62694;BME280;48759;52.544;13.418;2023-05-11T05:22:33;100850.91;;;9.60;nan
62694;BME280;48759;52.544;13.418;2023-05-11T05:25:00;100853.50;;;9.68;nan
62694;BME280;48759;52.544;13.418;2023-05-11T05:27:27;100852.53;;;9.76;nan
62694;BME280;48759;52.544;13.418;2023-05-11T05:29:54;100855.72;;;9.79;nan
62694;BME280;48759;52.544;13.418;2023-05-11T05:32:21;100847.31;;;9.87;nan
62694;BME280;48759;52.544;13.418;2023-05-11T05:35:10;100849.53;;;9.98;nan
62694;BME280;48759;52.544;13.418;2023-05-11T05:37:38;100857.50;;;10.15;nan
62694;BME280;48759;52.544;13.418;2023-05-11T05:40:12;100858.78;;;10.19;nan
62694;BME280;48759;52.544;13.418;2023-05-11T05:42:50;100852.72;;;10.30;nan
62694;BME280;48759;52.544;13.418;2023-05-11T05:45:20;100850.66;;;10.39;nan
62694;BME280;48759;52.544;13.418;2023-05-11T05:47:48;100859.13;;;10.37;nan
62694;BME280;48759;52.544;13.418;2023-05-11T05:50:22;100867.06;;;10.53;nan
62694;BME280;48759;52.544;13.418;2023-05-11T05:52:56;100863.44;;;10.53;nan
62694;BME280;48759;52.544;13.418;2023-05-11T05:55:39;100880.47;;;10.63;nan
62694;BME280;48759;52.544;13.418;2023-05-11T05:58:16;100885.38;;;10.67;nan
62694;BME280;48759;52.544;13.418;2023-05-11T06:00:45;100879.06;;;10.80;nan
62694;BME280;48759;52.544;13.418;2023-05-11T06:03:14;100877.63;;;10.91;nan
62694;BME280;48759;52.544;13.418;2023-05-11T06:05:54;100879.81;;;11.02;nan
62694;BME280;48759;52.544;13.418;2023-05-11T06:08:22;100887.44;;;11.06;nan
62694;BME280;48759;52.544;13.418;2023-05-11T06:10:51;100884.31;;;11.16;nan
62694;BME280;48759;52.544;13.418;2023-05-11T06:13:23;100885.84;;;11.32;nan
62694;BME280;48759;52.544;13.418;2023-05-11T06:15:52;100882.88;;;11.33;nan
62694;BME280;48759;52.544;13.418;2023-05-11T06:18:24;100886.31;;;11.48;nan
62694;BME280;48759;52.544;13.418;2023-05-11T06:21:16;100889.72;;;11.50;nan
62694;BME280;48759;52.544;13.418;2023-05-11T06:24:10;100885.97;;;11.65;nan
62694;BME280;48759;52.544;13.418;2023-05-11T06:27:10;100882.16;;;11.66;nan
62694;BME280;48759;52.544;13.418;2023-05-11T06:29:42;100888.53;;;11.73;nan
62694;BME280;48759;52.544;13.418;2023-05-11T06:32:27;100881.75;;;11.95;nan
62694;BME280;48759;52.544;13.418;2023-05-11T06:34:58;100881.31;;;12.05;nan
62694;BME280;48759;52.544;13.418;2023-05-11T06:37:47;100886.63;;;12.13;nan
62694;BME280;48759;52.544;13.418;2023-05-11T06:40:20;100887.88;;;12.10;nan
62694;BME280;48759;52.544;13.418;2023-05-11T06:43:14;100895.28;;;12.30;nan
62694;BME280;48759;52.544;13.418;2023-05-11T06:45:47;100893.78;;;12.47;nan
62694;BME280;48759;52.544;13.418;2023-05-11T06:48:17;100897.81;;;12.51;nan
62694;BME280;48759;52.544;13.418;2023-05-11T06:50:49;100888.06;;;12.68;nan
62694;BME280;48759;52.544;13.418;2023-05-11T06:53:25;100888.91;;;12.62;nan
62694;BME280;48759;52.544;13.418;2023-05-11T06:55:54;100893.13;;;12.71;nan
62694;BME280;48759;52.544;13.418;2023-05-11T06:58:24;100885.00;;;12.89;nan
62694;BME280;48759;52.544;13.418;2023-05-11T07:00:54;100889.47;;;12.90;nan
62694;BME280;48759;52.544;13.418;2023-05-11T07:03:22;100885.16;;;13.08;nan
62694;BME280;48759;52.544;13.418;2023-05-11T07:05:50;100893.63;;;13.13;nan
62694;BME280;48759;52.544;13.418;2023-05-11T07:08:19;100894.69;;;13.12;nan
62694;BME280;48759;52.544;13.418;2023-05-11T07:10:49;100891.00;;;13.31;nan
62694;BME280;48759;52.544;13.418;2023-05-11T07:13:17;100891.81;;;13.38;nan
62694;BME280;48759;52.544;13.418;2023-05-11T07:15:46;100890.66;;;13.52;nan
62694;BME280;48759;52.544;13.418;2023-05-11T07:18:14;100886.31;;;13.69;nan
62694;BME280;48759;52.544;13.418;2023-05-11T07:20:41;100884.56;;;13.75;nan
62694;BME280;48759;52.544;13.418;2023-05-11T07:23:14;100883.88;;;13.79;nan
62694;BME280;48759;52.544;13.418;2023-05-11T07:25:41;100888.97;;;13.83;nan
62694;BME280;48759;52.544;13.418;2023-05-11T07:28:13;100887.38;;;14.00;nan
62694;BME280;48759;52.544;13.418;2023-05-11T07:30:44;100890.00;;;14.13;nan
62694;BME280;48759;52.544;13.418;2023-05-11T07:33:30;100888.94;;;14.14;nan
62694;BME280;48759;52.544;13.418;2023-05-11T07:36:06;100887.44;;;14.36;nan
62694;BME280;48759;52.544;13.418;2023-05-11T07:38:48;100892.56;;;14.39;nan
62694;BME280;48759;52.544;13.418;2023-05-11T07:41:30;100884.69;;;14.36;nan
62694;BME280;48759;52.544;13.418;2023-05-11T07:44:02;100896.09;;;14.46;nan
62694;BME280;48759;52.544;13.418;2023-05-11T07:46:32;100889.16;;;14.80;nan
62694;BME280;48759;52.544;13.418;2023-05-11T07:49:11;100888.16;;;14.75;nan
62694;BME280;48759;52.544;13.418;2023-05-11T07:51:43;100888.53;;;14.78;nan
62694;BME280;48759;52.544;13.418;2023-05-11T07:54:10;100888.28;;;14.98;nan
62694;BME280;48759;52.544;13.418;2023-05-11T07:56:38;100885.91;;;15.02;nan
62694;BME280;48759;52.544;13.418;2023-05-11T07:59:11;100878.81;;;15.24;nan
62694;BME280;48759;52.544;13.418;2023-05-11T08:01:38;100879.34;;;15.33;nan
62694;BME280;48759;52.544;13.418;2023-05-11T08:04:07;100887.72;;;15.44;nan
62694;BME280;48759;52.544;13.418;2023-05-11T08:06:35;100893.44;;;15.49;nan
62694;BME280;48759;52.544;13.418;2023-05-11T08:09:09;100889.94;;;15.54;nan
62694;BME280;48759;52.544;13.418;2023-05-11T08:11:37;100899.81;;;15.50;nan
62694;BME280;48759;52.544;13.418;2023-05-11T08:14:05;100898.66;;;15.69;nan
62694;BME280;48759;52.544;13.418;2023-05-11T08:16:39;100887.56;;;15.69;nan
62694;BME280;48759;52.544;13.418;2023-05-11T08:19:07;100890.50;;;15.74;nan
62694;BME280;48759;52.544;13.418;2023-05-11T08:21:34;100894.72;;;15.77;nan
62694;BME280;48759;52.544;13.418;2023-05-11T08:24:02;100884.28;;;15.90;nan
62694;BME280;48759;52.544;13.418;2023-05-11T08:26:29;100895.84;;;15.87;nan
62694;BME280;48759;52.544;13.418;2023-05-11T08:28:58;100881.16;;;15.98;nan
62694;BME280;48759;52.544;13.418;2023-05-11T08:31:35;100895.59;;;15.89;nan
62694;BME280;48759;52.544;13.418;2023-05-11T08:34:06;100884.31;;;16.14;nan
62694;BME280;48759;52.544;13.418;2023-05-11T08:36:41;100889.06;;;16.36;nan
62694;BME280;48759;52.544;13.418;2023-05-11T08:39:08;100883.13;;;16.33;nan
62694;BME280;48759;52.544;13.418;2023-05-11T08:41:35;100888.06;;;16.31;nan
62694;BME280;48759;52.544;13.418;2023-05-11T08:44:03;100887.72;;;16.39;nan
62694;BME280;48759;52.544;13.418;2023-05-11T08:46:55;100899.81;;;16.56;nan
62694;BME280;48759;52.544;13.418;2023-05-11T08:49:28;100883.84;;;16.63;nan
62694;BME280;48759;52.544;13.418;2023-05-11T08:51:56;100878.28;;;16.63;nan
62694;BME280;48759;52.544;13.418;2023-05-11T08:54:24;100885.06;;;16.67;nan
62694;BME280;48759;52.544;13.418;2023-05-11T08:56:59;100893.25;;;16.86;nan
62694;BME280;48759;52.544;13.418;2023-05-11T08:59:27;100878.63;;;16.90;nan
62694;BME280;48759;52.544;13.418;2023-05-11T09:02:01;100886.97;;;17.02;nan
62694;BME280;48759;52.544;13.418;2023-05-11T09:04:32;100884.50;;;17.17;nan
62694;BME280;48759;52.544;13.418;2023-05-11T09:07:02;100881.13;;;17.15;nan
62694;BME280;48759;52.544;13.418;2023-05-11T09:09:30;100876.88;;;17.24;nan
62694;BME280;48759;52.544;13.418;2023-05-11T09:12:03;100882.94;;;17.49;nan
62694;BME280;48759;52.544;13.418;2023-05-11T09:14:36;100881.44;;;17.58;nan
62694;BME280;48759;52.544;13.418;2023-05-11T09:17:04;100877.56;;;17.59;nan
62694;BME280;48759;52.544;13.418;2023-05-11T09:19:35;100876.53;;;17.77;nan
62694;BME280;48759;52.544;13.418;2023-05-11T09:22:08;100884.91;;;17.77;nan
62694;BME280;48759;52.544;13.418;2023-05-11T09:24:44;100873.09;;;17.87;nan
62694;BME280;48759;52.544;13.418;2023-05-11T09:27:23;100871.75;;;18.06;nan
62694;BME280;48759;52.544;13.418;2023-05-11T09:29:52;100875.44;;;18.12;nan
62694;BME280;48759;52.544;13.418;2023-05-11T09:32:27;100866.84;;;18.13;nan
62694;BME280;48759;52.544;13.418;2023-05-11T09:38:11;100881.19;;;18.39;nan
62694;BME280;48759;52.544;13.418;2023-05-11T09:41:11;100878.81;;;18.47;nan
62694;BME280;48759;52.544;13.418;2023-05-11T09:43:49;100881.63;;;18.30;nan
62694;BME280;48759;52.544;13.418;2023-05-11T09:46:21;100872.47;;;18.35;nan
62694;BME280;48759;52.544;13.418;2023-05-11T09:48:57;100873.44;;;18.41;nan
62694;BME280;48759;52.544;13.418;2023-05-11T09:51:31;100877.63;;;18.43;nan
62694;BME280;48759;52.544;13.418;2023-05-11T09:54:14;100878.16;;;18.57;nan
62694;BME280;48759;52.544;13.418;2023-05-11T09:56:44;100878.44;;;18.77;nan
62694;BME280;48759;52.544;13.418;2023-05-11T09:59:36;100879.53;;;18.76;nan
62694;BME280;48759;52.544;13.418;2023-05-11T10:02:18;100870.03;;;18.94;nan
62694;BME280;48759;52.544;13.418;2023-05-11T10:04:57;100877.94;;;18.80;nan
62694;BME280;48759;52.544;13.418;2023-05-11T10:07:27;100868.22;;;19.04;nan
62694;BME280;48759;52.544;13.418;2023-05-11T10:10:00;100874.34;;;19.23;nan
62694;BME280;48759;52.544;13.418;2023-05-11T10:12:29;100875.22;;;19.51;nan
62694;BME280;48759;52.544;13.418;2023-05-11T10:15:00;100872.50;;;19.82;nan
62694;BME280;48759;52.544;13.418;2023-05-11T10:17:34;100875.31;;;19.88;nan
62694;BME280;48759;52.544;13.418;2023-05-11T10:20:11;100866.16;;;19.92;nan
62694;BME280;48759;52.544;13.418;2023-05-11T10:22:42;100878.41;;;20.18;nan
62694;BME280;48759;52.544;13.418;2023-05-11T10:25:14;100866.72;;;20.21;nan
62694;BME280;48759;52.544;13.418;2023-05-11T10:27:46;100863.41;;;20.29;nan
62694;BME280;48759;52.544;13.418;2023-05-11T10:30:15;100865.78;;;20.47;nan
62694;BME280;48759;52.544;13.418;2023-05-11T10:32:45;100864.72;;;20.53;nan
62694;BME280;48759;52.544;13.418;2023-05-11T10:35:13;100858.72;;;20.40;nan
62694;BME280;48759;52.544;13.418;2023-05-11T10:37:44;100865.09;;;20.67;nan
62694;BME280;48759;52.544;13.418;2023-05-11T10:40:16;100858.28;;;21.00;nan
62694;BME280;48759;52.544;13.418;2023-05-11T10:43:07;100863.41;;;21.23;nan
62694;BME280;48759;52.544;13.418;2023-05-11T10:45:51;100864.34;;;21.39;nan
62694;BME280;48759;52.544;13.418;2023-05-11T10:48:40;100862.56;;;20.60;nan
62694;BME280;48759;52.544;13.418;2023-05-11T10:51:36;100862.13;;;20.89;nan
62694;BME280;48759;52.544;13.418;2023-05-11T10:54:31;100862.84;;;21.21;nan
62694;BME280;48759;52.544;13.418;2023-05-11T10:57:32;100869.13;;;21.54;nan
62694;BME280;48759;52.544;13.418;2023-05-11T11:03:10;100860.53;;;21.91;nan
62694;BME280;48759;52.544;13.418;2023-05-11T11:05:38;100869.25;;;21.94;nan
62694;BME280;48759;52.544;13.418;2023-05-11T11:08:11;100866.38;;;21.84;nan
62694;BME280;48759;52.544;13.418;2023-05-11T11:10:40;100863.84;;;21.83;nan
62694;BME280;48759;52.544;13.418;2023-05-11T11:13:14;100857.63;;;21.50;nan
62694;BME280;48759;52.544;13.418;2023-05-11T11:16:08;100861.59;;;21.59;nan
62694;BME280;48759;52.544;13.418;2023-05-11T11:18:36;100855.09;;;21.44;nan
62694;BME280;48759;52.544;13.418;2023-05-11T11:21:40;100859.50;;;21.24;nan
62694;BME280;48759;52.544;13.418;2023-05-11T11:27:21;100861.16;;;21.15;nan
62694;BME280;48759;52.544;13.418;2023-05-11T11:30:19;100852.19;;;21.13;nan
62694;BME280;48759;52.544;13.418;2023-05-11T11:32:51;100849.84;;;20.95;nan
62694;BME280;48759;52.544;13.418;2023-05-11T11:35:46;100857.28;;;21.26;nan
62694;BME280;48759;52.544;13.418;2023-05-11T11:38:17;100858.94;;;21.22;nan
62694;BME280;48759;52.544;13.418;2023-05-11T11:40:47;100864.53;;;21.17;nan
62694;BME280;48759;52.544;13.418;2023-05-11T11:43:19;100854.84;;;21.45;nan
62694;BME280;48759;52.544;13.418;2023-05-11T11:45:56;100860.88;;;21.17;nan
62694;BME280;48759;52.544;13.418;2023-05-11T11:48:31;100873.34;;;20.89;nan
62694;BME280;48759;52.544;13.418;2023-05-11T11:51:07;100874.44;;;20.88;nan
62694;BME280;48759;52.544;13.418;2023-05-11T11:54:08;100871.38;;;20.89;nan
62694;BME280;48759;52.544;13.418;2023-05-11T11:56:40;100864.25;;;20.67;nan
62694;BME280;48759;52.544;13.418;2023-05-11T11:59:10;100875.22;;;20.36;nan
62694;BME280;48759;52.544;13.418;2023-05-11T12:01:42;100867.00;;;19.93;nan
62694;BME280;48759;52.544;13.418;2023-05-11T12:04:32;100874.66;;;19.75;nan
62694;BME280;48759;52.544;13.418;2023-05-11T12:07:12;100876.00;;;20.00;nan
62694;BME280;48759;52.544;13.418;2023-05-11T12:09:44;100878.13;;;20.14;nan
62694;BME280;48759;52.544;13.418;2023-05-11T12:12:16;100875.75;;;20.33;nan
62694;BME280;48759;52.544;13.418;2023-05-11T12:14:45;100877.06;;;20.26;nan
62694;BME280;48759;52.544;13.418;2023-05-11T12:17:22;100868.94;;;20.19;nan
62694;BME280;48759;52.544;13.418;2023-05-11T12:19:50;100873.44;;;20.25;nan
62694;BME280;48759;52.544;13.418;2023-05-11T12:22:22;100869.25;;;20.59;nan
62694;BME280;48759;52.544;13.418;2023-05-11T12:24:54;100877.25;;;20.88;nan
62694;BME280;48759;52.544;13.418;2023-05-11T12:27:23;100875.72;;;21.17;nan
62694;BME280;48759;52.544;13.418;2023-05-11T12:29:51;100869.91;;;21.34;nan
62694;BME280;48759;52.544;13.418;2023-05-11T12:32:29;100882.63;;;21.72;nan
62694;BME280;48759;52.544;13.418;2023-05-11T12:34:58;100878.22;;;22.11;nan
62694;BME280;48759;52.544;13.418;2023-05-11T12:37:26;100866.72;;;22.13;nan
62694;BME280;48759;52.544;13.418;2023-05-11T12:39:54;100881.31;;;22.25;nan
62694;BME280;48759;52.544;13.418;2023-05-11T12:42:21;100869.22;;;22.15;nan
62694;BME280;48759;52.544;13.418;2023-05-11T12:44:49;100872.06;;;22.20;nan
62694;BME280;48759;52.544;13.418;2023-05-11T12:47:17;100869.50;;;22.48;nan
62694;BME280;48759;52.544;13.418;2023-05-11T12:49:46;100869.75;;;22.52;nan
62694;BME280;48759;52.544;13.418;2023-05-11T12:52:16;100873.16;;;22.34;nan
62694;BME280;48759;52.544;13.418;2023-05-11T12:54:49;100878.75;;;22.29;nan
62694;BME280;48759;52.544;13.418;2023-05-11T12:57:23;100877.59;;;21.89;nan
62694;BME280;48759;52.544;13.418;2023-05-11T13:00:08;100878.22;;;22.27;nan
62694;BME280;48759;52.544;13.418;2023-05-11T13:02:48;100880.16;;;22.01;nan
62694;BME280;48759;52.544;13.418;2023-05-11T13:05:21;100878.22;;;22.06;nan
62694;BME280;48759;52.544;13.418;2023-05-11T13:07:56;100882.69;;;22.33;nan
62694;BME280;48759;52.544;13.418;2023-05-11T13:10:24;100882.41;;;22.39;nan
62694;BME280;48759;52.544;13.418;2023-05-11T13:12:54;100873.44;;;22.07;nan
62694;BME280;48759;52.544;13.418;2023-05-11T13:15:22;100877.38;;;22.57;nan
62694;BME280;48759;52.544;13.418;2023-05-11T13:17:56;100866.41;;;22.60;nan
62694;BME280;48759;52.544;13.418;2023-05-11T13:20:26;100858.69;;;23.16;nan
62694;BME280;48759;52.544;13.418;2023-05-11T13:23:05;100866.50;;;23.79;nan
62694;BME280;48759;52.544;13.418;2023-05-11T13:25:57;100863.94;;;24.50;nan
62694;BME280;48759;52.544;13.418;2023-05-11T13:28:24;100856.38;;;24.74;nan
62694;BME280;48759;52.544;13.418;2023-05-11T13:31:00;100859.59;;;25.16;nan
62694;BME280;48759;52.544;13.418;2023-05-11T13:33:28;100865.63;;;25.89;nan
62694;BME280;48759;52.544;13.418;2023-05-11T13:36:08;100861.81;;;26.31;nan
62694;BME280;48759;52.544;13.418;2023-05-11T13:38:41;100862.16;;;26.76;nan
62694;BME280;48759;52.544;13.418;2023-05-11T13:41:15;100852.50;;;26.77;nan
62694;BME280;48759;52.544;13.418;2023-05-11T13:44:12;100852.00;;;27.02;nan